Time;durP1;ratioP1;P1;durP2;ratioP2;P2;SDS_P1;SDS_P2;PMS_P1;PMS_P2;Temp;Humidity;BMP_temperature;BMP_pressure;BME280_temperature;BME280_humidity;BME280_pressure;Samples;Min_cycle;Max_cycle;Signal;HPM_P1;HPM_P2
2022/07/13 00:01:55;;;;;;;5.97;1.80;;;;;;;21.14;56.25;101227.97;4177975;28;20033;-63
2022/07/13 00:03:58;;;;;;;2.85;1.70;;;;;;;21.18;56.73;101227.03;4180131;28;20128;-63
2022/07/13 00:06:01;;;;;;;7.13;1.80;;;;;;;21.22;57.20;101233.16;4179584;28;20041;-62
2022/07/13 00:08:05;;;;;;;10.32;2.00;;;;;;;21.24;57.54;101229.56;4179495;28;20406;-62
2022/07/13 00:10:09;;;;;;;3.33;1.60;;;;;;;21.24;57.81;101221.63;4180162;28;20056;-62
2022/07/13 00:12:12;;;;;;;5.97;1.95;;;;;;;21.27;57.98;101223.34;4178811;28;20037;-62
2022/07/13 00:14:16;;;;;;;6.78;1.67;;;;;;;21.29;57.63;101226.84;4182502;28;20462;-62
2022/07/13 00:16:18;;;;;;;7.35;2.42;;;;;;;21.28;57.64;101218.03;4182462;28;20032;-63
2022/07/13 00:18:21;;;;;;;6.55;2.65;;;;;;;21.28;57.15;101215.38;4181476;28;20057;-63
2022/07/13 00:20:27;;;;;;;6.55;2.03;;;;;;;21.32;56.74;101221.50;4183176;28;20044;-62
2022/07/13 00:22:30;;;;;;;5.88;1.95;;;;;;;21.32;56.37;101223.25;4182576;28;20075;-62
2022/07/13 00:24:33;;;;;;;4.15;1.80;;;;;;;21.28;56.60;101225.97;4182292;28;20147;-63
2022/07/13 00:26:37;;;;;;;5.43;1.80;;;;;;;21.30;56.31;101217.13;4183135;28;20041;-62
2022/07/13 00:28:40;;;;;;;4.80;1.60;;;;;;;21.25;56.86;101231.31;4181331;28;20549;-63
2022/07/13 00:30:43;;;;;;;5.70;1.90;;;;;;;21.26;57.36;101232.16;4181815;28;20037;-63
2022/07/13 00:32:46;;;;;;;7.20;1.70;;;;;;;21.32;56.92;101228.56;4180392;28;20068;-62
2022/07/13 00:34:49;;;;;;;4.82;1.60;;;;;;;21.30;56.13;101230.38;4181915;28;20087;-62
2022/07/13 00:36:52;;;;;;;4.65;1.88;;;;;;;21.22;55.56;101235.81;4181183;28;20061;-63
2022/07/13 00:38:55;;;;;;;3.65;1.63;;;;;;;21.20;55.64;101232.28;4165396;28;20128;-62
2022/07/13 00:40:58;;;;;;;4.65;1.77;;;;;;;21.17;55.74;101233.22;4181642;28;20047;-63
2022/07/13 00:43:02;;;;;;;5.53;1.45;;;;;;;21.15;55.83;101235.03;4179292;28;20041;-62
2022/07/13 00:45:05;;;;;;;;;;;;;;;20.97;56.52;101237.97;4197126;28;20537;-62
2022/07/13 00:47:08;;;;;;;6.38;1.58;;;;;;;21.03;56.58;101237.88;4181758;28;19920;-62
2022/07/13 00:49:12;;;;;;;2.20;1.30;;;;;;;21.07;56.32;101234.28;4181725;28;20083;-63
2022/07/13 00:51:15;;;;;;;5.30;1.73;;;;;;;21.08;56.33;101233.38;4182922;28;20041;-62
2022/07/13 00:53:19;;;;;;;5.68;1.50;;;;;;;21.07;56.29;101236.91;4179540;28;20071;-62
2022/07/13 00:55:21;;;;;;;6.18;2.00;;;;;;;21.04;56.32;101222.00;4181766;28;20041;-62
2022/07/13 00:57:27;;;;;;;5.20;1.58;;;;;;;21.02;56.39;101223.78;4180086;28;20033;-62
2022/07/13 00:59:32;;;;;;;5.05;1.75;;;;;;;21.01;56.31;101218.53;4182612;28;20045;-62
2022/07/13 01:01:34;;;;;;;2.67;1.30;;;;;;;20.95;56.46;101208.91;4180689;28;20131;-62
2022/07/13 01:03:38;;;;;;;5.85;1.25;;;;;;;20.94;56.41;101207.19;4180786;28;20453;-62
2022/07/13 01:05:41;;;;;;;4.28;1.58;;;;;;;20.93;56.45;101208.09;4180163;28;20043;-62
2022/07/13 01:07:45;;;;;;;3.63;1.70;;;;;;;20.92;57.21;101212.50;4214524;28;20121;-62
2022/07/13 01:09:48;;;;;;;3.10;1.48;;;;;;;20.93;57.42;101208.94;4182495;28;20047;-62
2022/07/13 01:11:52;;;;;;;2.63;1.50;;;;;;;20.99;57.23;101212.41;4178016;28;20099;-62
2022/07/13 01:13:56;;;;;;;4.10;1.65;;;;;;;21.01;57.34;101215.88;4180334;28;20052;-62
2022/07/13 01:16:00;;;;;;;6.57;1.48;;;;;;;21.03;57.42;101214.97;4180505;28;20399;-62
2022/07/13 01:18:04;;;;;;;4.00;1.45;;;;;;;21.07;57.37;101219.31;4181191;28;20060;-62
2022/07/13 01:20:09;;;;;;;5.13;1.50;;;;;;;21.10;57.60;101215.75;4181209;28;20045;-62
2022/07/13 01:22:17;;;;;;;1.98;1.23;;;;;;;21.12;57.81;101213.06;4180865;28;20317;-62
2022/07/13 01:24:22;;;;;;;4.88;1.73;;;;;;;21.13;58.23;101214.78;4174146;28;20067;-62
2022/07/13 01:26:25;;;;;;;2.70;1.52;;;;;;;21.13;58.20;101205.09;4180493;28;20529;-62
2022/07/13 01:28:28;;;;;;;5.95;1.50;;;;;;;21.12;58.70;101198.06;4180363;28;20040;-62
2022/07/13 01:30:31;;;;;;;2.97;1.45;;;;;;;21.12;58.83;101198.06;4180335;28;20040;-62
2022/07/13 01:32:43;;;;;;;7.47;1.92;;;;;;;21.11;58.94;101193.66;4180114;28;20112;-62
2022/07/13 01:34:46;;;;;;;2.25;1.33;;;;;;;21.15;58.75;101195.34;4181449;28;20032;-62
2022/07/13 01:36:49;;;;;;;2.97;1.73;;;;;;;21.17;58.46;101192.69;4181651;28;20029;-62
2022/07/13 01:38:52;;;;;;;3.28;1.80;;;;;;;21.16;58.64;101193.56;4164232;28;20052;-62
2022/07/13 01:40:56;;;;;;;2.92;1.73;;;;;;;21.13;58.84;101189.25;4192094;28;20127;-62
2022/07/13 01:42:59;;;;;;;6.05;1.77;;;;;;;21.14;59.12;101190.09;4184977;28;20129;-62
2022/07/13 01:45:02;;;;;;;3.65;1.35;;;;;;;21.12;59.24;101190.13;4180200;28;20110;-62
2022/07/13 01:47:09;;;;;;;7.70;1.85;;;;;;;21.12;59.63;101187.47;4180672;28;20102;-62
2022/07/13 01:49:13;;;;;;;3.15;2.03;;;;;;;21.08;59.91;101185.78;4180240;28;20545;-62
2022/07/13 01:51:16;;;;;;;3.42;1.60;;;;;;;21.05;60.13;101183.19;4172332;28;20033;-62
2022/07/13 01:53:18;;;;;;;3.22;2.33;;;;;;;21.03;60.36;101182.38;4181065;28;20047;-62
2022/07/13 01:55:21;;;;;;;1.92;1.52;;;;;;;21.02;60.07;101183.25;4179987;28;20128;-62
2022/07/13 01:57:26;;;;;;;5.70;1.63;;;;;;;21.04;59.61;101181.44;4179658;28;20402;-62
2022/07/13 01:59:29;;;;;;;3.05;1.40;;;;;;;20.97;59.43;101182.47;4193500;28;20132;-62
2022/07/13 02:01:32;;;;;;;4.15;1.52;;;;;;;21.01;58.91;101184.16;4163682;28;20069;-62
2022/07/13 02:03:35;;;;;;;2.45;1.33;;;;;;;21.00;58.28;101177.16;4180001;28;20037;-62
2022/07/13 02:05:38;;;;;;;3.80;1.25;;;;;;;21.01;58.31;101185.03;4179802;28;20041;-62
2022/07/13 02:07:42;;;;;;;2.70;1.73;;;;;;;21.01;58.74;101178.88;4180284;28;20045;-62
2022/07/13 02:09:44;;;;;;;2.55;1.52;;;;;;;20.97;58.48;101179.81;4180213;28;20048;-62
2022/07/13 02:11:49;;;;;;;1.90;1.17;;;;;;;20.96;58.38;101184.25;4178941;28;20029;-62
2022/07/13 02:13:53;;;;;;;1.95;1.40;;;;;;;20.98;58.09;101184.22;4179804;28;20048;-62
2022/07/13 02:15:56;;;;;;;4.03;1.27;;;;;;;20.97;58.07;101179.81;4180284;28;20120;-62
2022/07/13 02:17:59;;;;;;;4.53;1.50;;;;;;;20.95;58.54;101171.91;4179702;28;20037;-62
2022/07/13 02:20:03;;;;;;;2.17;1.13;;;;;;;20.95;59.05;101178.97;4177782;28;20465;-62
2022/07/13 02:22:07;;;;;;;3.03;1.38;;;;;;;20.91;58.79;101179.03;4179356;28;20124;-62
2022/07/13 02:24:10;;;;;;;3.33;1.70;;;;;;;20.90;58.66;101182.56;4180948;28;20033;-62
2022/07/13 02:26:13;;;;;;;1.73;1.52;;;;;;;20.90;58.65;101177.28;4180385;28;20043;-62
2022/07/13 02:28:15;;;;;;;2.25;1.40;;;;;;;20.88;58.32;101179.09;4187850;28;20028;-62
2022/07/13 02:30:21;;;;;;;3.30;1.30;;;;;;;20.86;58.24;101178.22;4180016;28;20697;-61
2022/07/13 02:32:30;;;;;;;4.88;1.35;;;;;;;20.82;58.32;101171.28;4179107;28;20414;-62
2022/07/13 02:34:33;;;;;;;3.58;1.30;;;;;;;20.82;58.34;101173.03;4196178;28;20494;-61
2022/07/13 02:36:37;;;;;;;2.90;1.23;;;;;;;20.79;58.30;101170.44;4196102;28;20421;-61
2022/07/13 02:38:39;;;;;;;2.67;1.48;;;;;;;20.80;57.65;101175.69;4179667;28;20526;-62
2022/07/13 02:40:42;;;;;;;1.55;1.35;;;;;;;20.77;57.46;101174.88;4195377;28;20047;-62
2022/07/13 02:42:45;;;;;;;1.75;1.30;;;;;;;20.73;57.59;101171.41;4178775;28;20033;-62
2022/07/13 02:44:49;;;;;;;2.67;1.55;;;;;;;20.69;57.69;101177.63;4179729;28;20037;-62
2022/07/13 02:46:53;;;;;;;1.50;1.30;;;;;;;20.66;57.84;101162.72;4179584;28;20124;-62
2022/07/13 02:48:56;;;;;;;2.47;1.60;;;;;;;20.60;58.13;101159.28;4195979;28;20085;-62
2022/07/13 02:50:59;;;;;;;2.78;1.40;;;;;;;20.57;58.26;101158.44;4195749;28;20044;-61
2022/07/13 02:53:02;;;;;;;5.38;1.90;;;;;;;20.55;58.33;101151.44;4178811;28;20528;-62
2022/07/13 02:55:06;;;;;;;2.30;1.50;;;;;;;20.51;58.40;101153.22;4178995;28;20040;-62
2022/07/13 02:57:10;;;;;;;3.78;1.40;;;;;;;20.54;58.41;101153.16;4211932;28;20471;-62
2022/07/13 02:59:13;;;;;;;2.55;1.17;;;;;;;20.56;57.91;101151.41;4212906;28;20059;-61
2022/07/13 03:01:16;;;;;;;4.32;1.50;;;;;;;20.57;58.09;101139.94;4195311;28;20067;-62
2022/07/13 03:03:21;;;;;;;2.80;1.52;;;;;;;20.59;58.29;101150.47;4195297;28;20122;-62
2022/07/13 03:05:24;;;;;;;3.75;1.65;;;;;;;20.62;58.20;101144.25;4179634;28;20119;-61
2022/07/13 03:07:27;;;;;;;3.15;1.73;;;;;;;20.61;58.20;101153.09;4195749;28;20060;-62
2022/07/13 03:09:30;;;;;;;3.75;1.60;;;;;;;20.62;58.23;101154.81;4192332;28;20075;-62
2022/07/13 03:11:33;;;;;;;3.35;1.75;;;;;;;20.64;57.98;101145.97;4173230;28;20036;-62
2022/07/13 03:13:37;;;;;;;3.05;1.80;;;;;;;20.64;58.25;101137.19;4179132;28;20120;-62
2022/07/13 03:15:40;;;;;;;3.03;1.38;;;;;;;20.68;58.37;101136.28;4179553;28;20090;-61
2022/07/13 03:17:43;;;;;;;2.90;1.70;;;;;;;20.70;58.20;101137.97;4179120;28;20036;-62
2022/07/13 03:19:49;;;;;;;1.98;1.40;;;;;;;20.72;58.05;101138.84;4179488;28;20047;-62
2022/07/13 03:21:52;;;;;;;3.03;1.50;;;;;;;20.68;58.29;101144.22;4179372;28;20124;-62
2022/07/13 03:23:55;;;;;;;3.83;1.67;;;;;;;20.67;58.79;101138.03;4194770;28;20500;-62
2022/07/13 03:25:58;;;;;;;4.68;1.50;;;;;;;20.65;58.94;101138.94;4194721;28;20036;-61
2022/07/13 03:28:02;;;;;;;3.45;1.60;;;;;;;20.63;58.97;101146.00;4179314;28;20044;-62
2022/07/13 03:30:06;;;;;;;4.68;1.70;;;;;;;20.60;59.09;101152.19;4179173;28;20087;-62
2022/07/13 03:32:08;;;;;;;3.47;1.67;;;;;;;20.54;59.44;101154.94;4193765;28;20041;-62
2022/07/13 03:34:13;;;;;;;4.88;1.20;;;;;;;20.50;59.22;101155.91;4178113;28;20486;-61
2022/07/13 03:36:18;;;;;;;2.10;1.55;;;;;;;20.48;59.50;101158.56;4178993;28;20037;-61
2022/07/13 03:38:22;;;;;;;2.10;1.40;;;;;;;20.49;59.24;101152.38;4179143;28;20131;-62
2022/07/13 03:40:25;;;;;;;3.03;1.40;;;;;;;20.49;59.19;101152.38;4195430;28;20041;-62
2022/07/13 03:42:28;;;;;;;3.05;1.60;;;;;;;20.50;59.43;101147.97;4177576;28;20037;-62
2022/07/13 03:44:31;;;;;;;4.38;1.50;;;;;;;20.49;59.45;101155.03;4179150;28;20071;-62
2022/07/13 03:46:34;;;;;;;1.90;1.50;;;;;;;20.48;59.44;101153.28;4179856;28;20115;-62
2022/07/13 03:48:38;;;;;;;2.67;1.52;;;;;;;20.47;59.41;101154.19;4181389;28;20037;-62
2022/07/13 03:50:41;;;;;;;3.55;1.50;;;;;;;20.49;59.60;101149.75;4181284;28;20061;-62
2022/07/13 03:52:45;;;;;;;1.73;1.48;;;;;;;20.51;59.06;101155.88;4181337;28;20033;-62
2022/07/13 03:54:49;;;;;;;4.35;1.40;;;;;;;20.49;59.69;101160.31;4185004;28;20040;-61
2022/07/13 03:56:52;;;;;;;4.13;1.52;;;;;;;20.43;59.97;101160.41;4165762;28;20041;-62
2022/07/13 03:58:55;;;;;;;2.28;1.50;;;;;;;20.39;59.84;101164.00;4182370;28;20041;-62
2022/07/13 04:00:58;;;;;;;4.47;1.50;;;;;;;20.32;60.24;101165.84;4191822;28;20056;-62
2022/07/13 04:03:01;;;;;;;3.80;1.45;;;;;;;20.30;60.04;101165.00;4180860;28;20477;-62
2022/07/13 04:05:06;;;;;;;1.92;1.50;;;;;;;20.29;60.20;101167.66;4213227;28;20448;-62
2022/07/13 04:07:15;;;;;;;3.35;1.42;;;;;;;20.25;60.18;101169.47;4179670;28;20036;-62
2022/07/13 04:09:20;;;;;;;3.80;1.83;;;;;;;20.26;60.34;101160.66;4208766;28;20040;-62
2022/07/13 04:11:23;;;;;;;5.63;1.95;;;;;;;20.26;60.05;101167.72;4165610;28;20092;-62
2022/07/13 04:13:26;;;;;;;2.58;1.65;;;;;;;20.23;60.09;101163.34;4184208;28;20456;-62
2022/07/13 04:15:30;;;;;;;2.25;1.67;;;;;;;20.19;60.51;101156.38;4182113;28;20123;-61
2022/07/13 04:17:32;;;;;;;2.92;1.50;;;;;;;20.18;60.43;101147.59;4181966;28;20045;-61
2022/07/13 04:19:36;;;;;;;3.58;1.42;;;;;;;20.24;60.36;101149.25;4180780;28;20612;-62
2022/07/13 04:21:40;;;;;;;4.45;1.63;;;;;;;20.27;60.57;101143.03;4180769;28;20481;-62
2022/07/13 04:23:46;;;;;;;3.40;1.38;;;;;;;20.23;60.51;101148.38;4182200;28;20044;-62
2022/07/13 04:25:50;;;;;;;4.63;1.83;;;;;;;20.22;60.33;101149.28;4181913;28;20041;-62
2022/07/13 04:27:53;;;;;;;3.85;1.60;;;;;;;20.19;60.42;101146.69;4181992;28;20119;-62
2022/07/13 04:29:56;;;;;;;4.57;1.42;;;;;;;20.16;60.97;101145.84;4181708;28;20037;-62
2022/07/13 04:31:59;;;;;;;2.88;1.35;;;;;;;20.15;61.12;101150.28;4178202;28;20125;-62
2022/07/13 04:34:03;;;;;;;3.67;1.73;;;;;;;20.16;61.43;101145.84;4180381;28;20048;-62
2022/07/13 04:36:07;;;;;;;1.48;1.20;;;;;;;20.18;61.69;101144.94;4182594;28;20127;-62
2022/07/13 04:38:12;;;;;;;1.90;1.70;;;;;;;20.21;61.56;101142.25;4195518;28;20102;-62
2022/07/13 04:40:15;;;;;;;4.90;1.80;;;;;;;20.29;62.16;101141.25;4180343;28;20513;-62
2022/07/13 04:42:19;;;;;;;3.17;1.65;;;;;;;20.33;62.37;101149.13;4208328;28;20036;-62
2022/07/13 04:44:23;;;;;;;3.83;1.98;;;;;;;20.29;62.56;101151.81;4165265;28;20561;-62
2022/07/13 04:46:27;;;;;;;2.47;1.70;;;;;;;20.31;62.53;101144.75;4198275;28;20127;-62
2022/07/13 04:48:31;;;;;;;4.95;1.95;;;;;;;20.35;62.69;101155.22;4181708;28;20530;-61
2022/07/13 04:50:34;;;;;;;3.22;1.95;;;;;;;20.48;62.34;101155.91;4198151;28;20040;-62
2022/07/13 04:52:38;;;;;;;7.38;1.77;;;;;;;20.57;61.71;101155.78;4180827;28;20084;-62
2022/07/13 04:54:40;;;;;;;5.32;1.95;;;;;;;20.64;61.07;101153.91;4163970;28;20065;-62
2022/07/13 04:56:44;;;;;;;1.95;1.45;;;;;;;20.63;60.60;101157.44;4181510;28;20065;-62
2022/07/13 04:58:48;;;;;;;2.85;1.58;;;;;;;20.63;60.59;101151.28;4158961;28;20522;-62
2022/07/13 05:00:51;;;;;;;;;;;;;;;20.47;61.14;101156.84;4181607;28;20109;-62
2022/07/13 05:03:14;;;;;;;4.70;1.60;;;;;;;20.56;61.13;101156.69;4180500;28;19967;-62
2022/07/13 05:05:17;;;;;;;2.70;1.75;;;;;;;20.61;60.75;101153.97;4194060;28;20037;-62
2022/07/13 05:07:20;;;;;;;3.20;1.50;;;;;;;20.68;60.16;101152.13;4180771;28;20490;-62
2022/07/13 05:09:23;;;;;;;2.65;1.30;;;;;;;20.72;60.11;101145.88;4181055;28;20479;-61
2022/07/13 05:11:26;;;;;;;3.78;1.48;;;;;;;20.77;59.86;101148.47;4181211;28;20075;-62
2022/07/13 05:13:29;;;;;;;2.90;1.27;;;;;;;20.79;59.74;101141.38;4179473;28;20041;-62
2022/07/13 05:15:36;;;;;;;1.38;1.27;;;;;;;20.84;59.43;101145.69;4181347;28;20131;-62
2022/07/13 05:17:40;;;;;;;5.57;1.20;;;;;;;20.86;59.25;101138.59;4179683;28;20063;-62
2022/07/13 05:19:44;;;;;;;4.78;1.40;;;;;;;20.91;58.96;101139.38;4190162;28;20037;-62
2022/07/13 05:21:47;;;;;;;3.00;1.38;;;;;;;20.95;59.10;101142.84;4174939;28;20473;-62
2022/07/13 05:23:51;;;;;;;1.38;1.05;;;;;;;21.00;58.82;101138.34;4176083;28;20036;-62
2022/07/13 05:25:54;;;;;;;1.50;1.20;;;;;;;21.03;58.59;101142.72;4213205;28;20425;-62
2022/07/13 05:27:57;;;;;;;3.03;1.20;;;;;;;21.06;58.82;101140.00;4211256;28;20095;-62
2022/07/13 05:30:04;;;;;;;2.47;1.33;;;;;;;21.07;58.56;101147.03;4190493;28;20579;-62
2022/07/13 05:32:08;;;;;;;1.65;1.27;;;;;;;21.13;58.62;101152.22;4179767;28;20072;-62
2022/07/13 05:34:11;;;;;;;4.30;1.40;;;;;;;21.15;58.64;101155.69;4184185;28;20128;-62
2022/07/13 05:36:19;;;;;;;2.30;1.38;;;;;;;21.17;57.35;101156.53;4185775;28;20044;-62
2022/07/13 05:38:23;;;;;;;2.60;1.77;;;;;;;21.12;57.16;101157.53;4180570;28;20067;-62
2022/07/13 05:40:29;;;;;;;2.10;1.40;;;;;;;21.18;56.85;101153.00;4197069;28;20047;-62
2022/07/13 05:42:33;;;;;;;6.75;2.33;;;;;;;21.25;56.49;101157.25;4195463;28;20056;-62
2022/07/13 05:44:37;;;;;;;2.53;1.45;;;;;;;21.28;56.50;101162.50;4180589;28;20078;-62
2022/07/13 05:46:40;;;;;;;1.70;1.10;;;;;;;21.32;56.58;101167.72;4180734;28;20068;-62
2022/07/13 05:48:45;;;;;;;2.50;1.50;;;;;;;21.35;56.45;101172.94;4180761;28;20172;-62
2022/07/13 05:50:51;;;;;;;3.25;1.50;;;;;;;21.39;56.32;101175.53;4182660;28;20041;-62
2022/07/13 05:53:14;;;;;;;2.08;1.40;;;;;;;21.42;56.34;101171.94;4177601;28;20033;-62
2022/07/13 05:55:17;;;;;;;5.50;1.35;;;;;;;21.50;56.11;101166.50;4171722;28;20067;-62
2022/07/13 05:57:20;;;;;;;2.17;1.30;;;;;;;21.56;56.07;101161.97;4180147;28;20486;-62
2022/07/13 05:59:23;;;;;;;3.05;1.40;;;;;;;21.60;56.51;101168.97;4195134;28;20036;-62
2022/07/13 06:01:27;;;;;;;6.22;1.50;;;;;;;21.66;56.19;101169.75;4179976;28;20531;-61
2022/07/13 06:03:30;;;;;;;6.15;2.08;;;;;;;21.71;56.02;101166.13;4176645;28;20051;-62
2022/07/13 06:05:34;;;;;;;12.23;2.08;;;;;;;21.75;55.61;101167.75;4179840;28;20052;-63
2022/07/13 06:07:37;;;;;;;11.20;1.90;;;;;;;21.76;55.31;101166.00;4178522;28;20067;-62
2022/07/13 06:09:40;;;;;;;5.40;1.88;;;;;;;21.78;55.44;101167.69;4175722;28;20036;-62
2022/07/13 06:11:43;;;;;;;10.10;1.77;;;;;;;21.80;55.49;101154.47;4162354;28;20069;-62
2022/07/13 06:13:46;;;;;;;10.00;1.70;;;;;;;21.83;55.75;101159.69;4181243;28;20561;-61
2022/07/13 06:15:49;;;;;;;6.10;1.50;;;;;;;21.86;55.34;101156.97;4180261;28;20037;-62
2022/07/13 06:17:52;;;;;;;5.75;1.80;;;;;;;21.88;55.71;101159.59;4177833;28;20481;-62
2022/07/13 06:19:55;;;;;;;7.78;1.75;;;;;;;21.91;55.50;101167.44;4179988;28;20117;-62
2022/07/13 06:21:59;;;;;;;9.10;2.00;;;;;;;21.93;55.73;101160.34;4177563;28;20462;-62
2022/07/13 06:24:02;;;;;;;5.05;1.85;;;;;;;21.95;55.99;101162.06;4188507;28;20446;-62
2022/07/13 06:26:05;;;;;;;5.15;1.50;;;;;;;21.99;55.75;101154.03;4179601;28;20037;-62
2022/07/13 06:28:08;;;;;;;7.18;1.80;;;;;;;22.01;55.95;101157.53;4181001;28;20410;-62
2022/07/13 06:30:11;;;;;;;5.53;1.63;;;;;;;22.03;55.94;101151.28;4181317;28;20041;-62
2022/07/13 06:32:14;;;;;;;7.82;2.08;;;;;;;22.03;55.87;101158.38;4178745;28;20040;-62
2022/07/13 06:34:17;;;;;;;5.70;2.05;;;;;;;22.08;55.45;101159.16;4182379;28;20040;-62
2022/07/13 06:36:20;;;;;;;5.63;2.75;;;;;;;22.07;54.84;101157.41;4183038;28;20128;-62
2022/07/13 06:38:24;;;;;;;7.68;2.08;;;;;;;22.07;54.70;101162.69;4197534;28;20501;-62
2022/07/13 06:40:27;;;;;;;8.90;2.05;;;;;;;22.10;55.34;101163.47;4197599;28;20052;-62
2022/07/13 06:42:30;;;;;;;13.77;1.98;;;;;;;22.19;55.62;101153.59;4196494;28;20489;-62
2022/07/13 06:44:34;;;;;;;2.70;1.50;;;;;;;22.25;55.74;101156.09;4191046;28;20050;-62
2022/07/13 06:46:37;;;;;;;7.60;2.10;;;;;;;22.29;55.80;101153.34;4196494;28;20047;-61
2022/07/13 06:48:40;;;;;;;12.55;1.90;;;;;;;22.38;55.71;101148.78;4196212;28;20036;-62
2022/07/13 06:50:43;;;;;;;4.90;1.40;;;;;;;22.39;55.90;101154.03;4197529;28;20033;-62
2022/07/13 06:52:46;;;;;;;4.88;1.50;;;;;;;22.44;55.81;101148.63;4196653;28;20537;-63
2022/07/13 06:54:50;;;;;;;5.05;1.42;;;;;;;22.47;55.71;101151.19;4197507;28;20037;-62
2022/07/13 06:56:53;;;;;;;6.38;1.65;;;;;;;22.57;55.15;101147.41;4179645;28;20131;-62
2022/07/13 06:58:56;;;;;;;2.08;1.08;;;;;;;22.54;53.38;101154.56;4189407;28;20043;-62
2022/07/13 07:00:58;;;;;;;3.92;1.25;;;;;;;22.57;52.87;101154.50;4197220;28;20123;-62
2022/07/13 07:03:02;;;;;;;2.85;1.13;;;;;;;22.59;52.53;101153.56;4195387;28;20046;-62
2022/07/13 07:05:07;;;;;;;4.75;1.23;;;;;;;22.58;52.37;101154.44;4196176;28;20037;-61
2022/07/13 07:07:10;;;;;;;4.40;1.08;;;;;;;22.59;51.57;101156.19;4197431;28;20078;-62
2022/07/13 07:09:13;;;;;;;3.25;1.00;;;;;;;22.71;51.67;101160.31;4212739;28;20043;-61
2022/07/13 07:11:17;;;;;;;2.60;1.00;;;;;;;22.81;52.20;101159.19;4197437;28;20036;-61
2022/07/13 07:13:20;;;;;;;1.45;0.93;;;;;;;22.91;51.86;101157.16;4192923;28;20040;-61
2022/07/13 07:15:24;;;;;;;3.30;1.10;;;;;;;22.94;51.27;101151.78;4197091;28;20041;-61
2022/07/13 07:17:26;;;;;;;3.43;0.93;;;;;;;23.00;51.19;101150.75;4197350;28;20044;-62
2022/07/13 07:19:29;;;;;;;2.28;1.10;;;;;;;23.15;51.17;101144.19;4212691;28;20043;-62
2022/07/13 07:21:32;;;;;;;4.38;1.33;;;;;;;23.21;50.79;101149.31;4196596;28;20504;-62
2022/07/13 07:23:35;;;;;;;5.05;1.10;;;;;;;23.33;51.13;101149.00;4195705;28;20043;-61
2022/07/13 07:25:38;;;;;;;3.42;0.98;;;;;;;23.42;50.83;101141.66;4194325;28;20123;-62
2022/07/13 07:27:44;;;;;;;5.18;1.40;;;;;;;23.47;51.76;101148.59;4187462;28;20448;-62
2022/07/13 07:29:47;;;;;;;6.63;1.25;;;;;;;23.60;50.29;101148.25;4190908;28;20059;-62
2022/07/13 07:31:50;;;;;;;6.05;1.20;;;;;;;23.67;49.55;101149.78;4189978;28;20041;-62
2022/07/13 07:33:53;;;;;;;3.22;1.20;;;;;;;23.61;49.80;101147.31;4190063;28;20040;-62
2022/07/13 07:35:56;;;;;;;4.07;1.13;;;;;;;23.58;49.41;101142.97;4193965;28;20039;-62
2022/07/13 07:38:00;;;;;;;3.45;1.00;;;;;;;23.58;49.75;101147.41;4187548;28;20037;-62
2022/07/13 07:40:03;;;;;;;1.75;0.90;;;;;;;23.62;49.76;101144.63;4184454;28;20439;-62
2022/07/13 07:42:05;;;;;;;1.38;0.93;;;;;;;23.58;49.56;101150.94;4191001;28;20036;-62
2022/07/13 07:44:10;;;;;;;3.33;1.10;;;;;;;23.57;49.89;101153.63;4196788;28;20115;-62
2022/07/13 07:46:14;;;;;;;3.55;1.13;;;;;;;23.59;50.36;101150.03;4189245;28;20036;-62
2022/07/13 07:48:17;;;;;;;4.50;1.35;;;;;;;23.62;50.24;101152.56;4188783;28;20036;-62
2022/07/13 07:50:20;;;;;;;5.18;1.30;;;;;;;23.60;50.06;101153.56;4193220;28;20032;-62
2022/07/13 07:52:23;;;;;;;4.95;1.20;;;;;;;23.59;50.25;101160.63;4195919;28;20047;-62
2022/07/13 07:54:47;;;;;;;9.15;1.30;;;;;;;23.64;50.74;101156.06;4183353;28;20040;-62
2022/07/13 07:56:57;;;;;;;3.13;1.20;;;;;;;23.77;50.32;101153.03;4187148;28;20044;-62
2022/07/13 07:59:00;;;;;;;1.15;0.90;;;;;;;23.81;49.80;101152.03;4196141;28;20127;-61
2022/07/13 08:01:04;;;;;;;4.28;1.15;;;;;;;23.90;50.51;101146.47;4189582;28;20142;-62
2022/07/13 08:03:07;;;;;;;8.27;2.08;;;;;;;23.97;50.75;101145.38;4177589;28;20048;-62
2022/07/13 08:05:10;;;;;;;3.20;1.38;;;;;;;24.05;50.35;101146.03;4192132;28;20054;-62
2022/07/13 08:07:13;;;;;;;4.72;1.10;;;;;;;24.04;50.13;101151.38;4193329;28;20051;-62
2022/07/13 08:09:16;;;;;;;1.60;1.13;;;;;;;24.07;50.03;101150.44;4188219;28;20375;-61
2022/07/13 08:11:20;;;;;;;6.47;1.23;;;;;;;24.14;49.29;101157.28;4196561;28;20032;-62
2022/07/13 08:13:23;;;;;;;4.82;1.10;;;;;;;24.24;48.96;101150.75;4185146;28;20281;-62
2022/07/13 08:15:26;;;;;;;5.15;1.30;;;;;;;24.10;48.52;101153.84;4194106;28;20037;-61
2022/07/13 08:17:30;;;;;;;2.13;1.10;;;;;;;24.12;48.78;101153.78;4195387;28;20036;-62
2022/07/13 08:19:33;;;;;;;2.80;1.38;;;;;;;24.22;49.10;101149.94;4196360;28;20558;-62
2022/07/13 08:21:43;;;;;;;3.83;1.65;;;;;;;24.34;48.23;101151.31;4189996;28;20036;-62
2022/07/13 08:23:52;;;;;;;6.13;1.50;;;;;;;24.37;48.82;101148.56;4192826;28;20514;-62
2022/07/13 08:25:56;;;;;;;4.80;1.50;;;;;;;24.43;48.56;101150.16;4175527;28;20049;-62
2022/07/13 08:27:59;;;;;;;3.40;1.20;;;;;;;24.59;47.66;101151.44;4170146;28;20036;-62
2022/07/13 08:30:02;;;;;;;2.22;1.27;;;;;;;24.62;49.03;101146.00;4174878;28;20045;-62
2022/07/13 08:32:05;;;;;;;5.10;1.40;;;;;;;24.73;49.88;101146.50;4172053;28;20033;-62
2022/07/13 08:38:50;;;;;;;7.65;1.50;;;;;;;25.05;46.02;101151.66;4193039;28;20062;-62
2022/07/13 08:40:54;;;;;;;2.65;1.08;;;;;;;25.02;46.65;101141.13;4193067;28;20032;-61
2022/07/13 08:42:57;;;;;;;3.90;1.30;;;;;;;25.04;47.14;101136.59;4193548;28;20037;-62
2022/07/13 08:45:00;;;;;;;4.10;1.15;;;;;;;25.07;46.25;101134.72;4181163;28;20045;-62
2022/07/13 08:47:06;;;;;;;1.30;0.80;;;;;;;25.15;45.85;101136.22;4195082;28;20040;-62
2022/07/13 08:49:11;;;;;;;5.35;1.10;;;;;;;25.20;45.65;101135.16;4197138;28;20040;-62
2022/07/13 08:51:17;;;;;;;2.78;1.15;;;;;;;25.37;45.74;101139.00;4181346;28;20120;-62
2022/07/13 08:53:22;;;;;;;1.50;0.90;;;;;;;25.49;45.28;101132.34;4176868;28;20102;-62
2022/07/13 08:55:26;;;;;;;;;;;;;;;25.52;44.98;101118.94;4180059;28;20128;-62
2022/07/13 08:57:29;;;;;;;6.43;1.13;;;;;;;25.76;45.74;101125.13;4199005;28;20382;-62
2022/07/13 08:59:33;;;;;;;3.58;0.95;;;;;;;25.92;45.54;101123.59;4179823;28;20048;-62
2022/07/13 09:01:36;;;;;;;1.55;0.90;;;;;;;26.08;43.99;101117.66;4197289;28;20044;-62
2022/07/13 09:03:39;;;;;;;4.28;1.52;;;;;;;26.38;43.40;101118.22;4196543;28;20526;-62
2022/07/13 09:05:44;;;;;;;2.35;1.20;;;;;;;26.43;43.25;101120.69;4186798;28;20057;-62
2022/07/13 09:08:03;;;;;;;3.63;1.20;;;;;;;26.42;43.44;101122.50;4190079;28;20491;-63
2022/07/13 09:10:06;;;;;;;2.03;1.00;;;;;;;26.41;43.06;101119.88;4197146;28;20375;-61
2022/07/13 09:12:15;;;;;;;4.63;0.80;;;;;;;26.34;42.54;101119.25;4192308;28;20063;-61
2022/07/13 09:14:24;;;;;;;3.63;0.85;;;;;;;26.30;42.62;101120.34;4206150;28;20043;-62
2022/07/13 09:16:28;;;;;;;4.22;2.45;;;;;;;26.30;42.67;101117.69;4196068;28;20029;-62
2022/07/13 09:18:36;;;;;;;3.58;0.80;;;;;;;26.25;41.88;101114.31;4194007;28;20044;-62
2022/07/13 09:20:39;;;;;;;4.40;0.80;;;;;;;26.19;42.30;101122.56;4193157;28;20067;-61
2022/07/13 09:22:49;;;;;;;2.55;0.98;;;;;;;26.17;42.13;101119.97;4188558;28;20106;-62
2022/07/13 09:24:53;;;;;;;3.03;1.02;;;;;;;26.29;42.79;101115.94;4208034;28;20043;-61
2022/07/13 09:26:56;;;;;;;3.65;1.00;;;;;;;26.52;42.05;101114.97;4170532;28;20172;-62
2022/07/13 09:29:01;;;;;;;3.88;1.13;;;;;;;26.66;43.73;101114.38;4178513;28;20040;-62
2022/07/13 09:31:04;;;;;;;3.40;1.13;;;;;;;26.75;41.60;101106.03;4176376;28;20041;-62
2022/07/13 09:33:08;;;;;;;2.05;1.02;;;;;;;26.82;41.90;101115.50;4188322;28;20044;-62
2022/07/13 09:35:11;;;;;;;2.73;0.80;;;;;;;26.97;41.88;101105.97;4179010;28;20048;-62
2022/07/13 09:37:15;;;;;;;1.45;0.70;;;;;;;26.88;41.11;101109.00;4197313;28;20287;-62
2022/07/13 09:39:19;;;;;;;3.35;1.00;;;;;;;27.00;40.16;101107.63;4181019;28;20051;-62
2022/07/13 09:41:24;;;;;;;1.85;0.70;;;;;;;27.24;39.40;101107.47;4175201;28;20557;-62
2022/07/13 09:48:13;;;;;;;1.27;0.85;;;;;;;27.42;39.85;101108.44;4179764;28;20123;-62